createdAt,value
2019-04-21T00:00:37.534Z,4.80
2019-04-21T00:01:47.381Z,4.90
2019-04-21T00:02:50.905Z,5.00
2019-04-21T00:04:03.775Z,5.00
2019-04-21T00:05:26.056Z,5.20
2019-04-21T00:06:31.490Z,5.20
2019-04-21T00:07:36.554Z,5.10
2019-04-21T00:08:52.211Z,5.20
2019-04-21T00:09:52.311Z,5.30
2019-04-21T00:11:02.906Z,5.50
2019-04-21T00:12:02.569Z,5.50
2019-04-21T00:13:07.822Z,5.60
2019-04-21T00:14:14.112Z,5.60
2019-04-21T00:15:19.370Z,5.60
2019-04-21T00:16:17.156Z,5.60
2019-04-21T00:17:24.887Z,5.60
2019-04-21T00:18:54.882Z,5.60
2019-04-21T00:20:09.250Z,5.70
2019-04-21T00:21:14.923Z,5.70
2019-04-21T00:22:23.145Z,5.70
2019-04-21T00:23:37.761Z,5.70
2019-04-21T00:24:41.327Z,5.60
2019-04-21T00:25:47.875Z,5.60
2019-04-21T00:27:04.195Z,5.60
2019-04-21T00:28:16.878Z,5.60
2019-04-21T00:29:25.648Z,5.50
2019-04-21T00:30:30.357Z,5.50
2019-04-21T00:31:28.313Z,5.50
2019-04-21T00:32:32.000Z,5.50
2019-04-21T00:33:34.312Z,5.50
2019-04-21T00:34:40.085Z,5.40
2019-04-21T00:35:54.281Z,5.40
2019-04-21T00:37:03.119Z,5.40
2019-04-21T00:38:17.021Z,5.40
2019-04-21T00:39:36.413Z,5.40
2019-04-21T00:40:36.923Z,5.30
2019-04-21T00:41:43.937Z,5.20
2019-04-21T00:42:48.450Z,5.20
2019-04-21T00:43:50.919Z,5.20
2019-04-21T00:45:06.610Z,5.20
2019-04-21T00:46:03.441Z,5.30
2019-04-21T00:47:24.698Z,5.30
2019-04-21T00:48:30.398Z,5.40
2019-04-21T00:49:27.056Z,5.40
2019-04-21T00:51:05.443Z,5.40
2019-04-21T00:52:29.104Z,5.40
2019-04-21T00:53:35.765Z,5.40
2019-04-21T00:54:51.949Z,5.40
2019-04-21T00:56:01.506Z,5.40
2019-04-21T00:57:08.587Z,5.40
2019-04-21T00:58:23.904Z,5.50
2019-04-21T00:59:13.900Z,5.50
2019-04-21T01:00:22.277Z,5.50
2019-04-21T01:01:24.901Z,5.40
2019-04-21T01:02:39.917Z,5.40
2019-04-21T01:03:46.063Z,5.40
2019-04-21T01:04:50.076Z,5.30
2019-04-21T01:05:57.563Z,5.30
2019-04-21T01:07:02.970Z,5.20
2019-04-21T01:08:09.417Z,5.20
2019-04-21T01:09:14.946Z,5.10
2019-04-21T01:10:21.111Z,5.10
2019-04-21T01:11:31.703Z,5.00
2019-04-21T01:12:41.776Z,5.00
2019-04-21T01:13:54.664Z,5.00
2019-04-21T01:15:04.713Z,4.90
2019-04-21T01:16:12.624Z,4.90
2019-04-21T01:17:12.996Z,4.90
2019-04-21T01:18:20.738Z,4.90
2019-04-21T01:19:25.226Z,4.80
2019-04-21T01:20:17.671Z,4.90
2019-04-21T01:21:20.518Z,4.90
2019-04-21T01:22:26.427Z,4.90
2019-04-21T01:23:32.163Z,4.90
2019-04-21T01:24:43.040Z,4.90
2019-04-21T01:26:00.765Z,4.90
2019-04-21T01:27:02.257Z,4.90
2019-04-21T01:28:18.794Z,4.90
2019-04-21T01:29:22.766Z,5.00
2019-04-21T01:30:36.584Z,5.00
2019-04-21T01:31:36.666Z,5.00
2019-04-21T01:32:53.290Z,5.00
2019-04-21T01:34:01.224Z,5.00
2019-04-21T01:35:02.701Z,5.00
2019-04-21T01:36:12.294Z,5.00
2019-04-21T01:37:30.829Z,4.90
2019-04-21T01:38:32.611Z,4.90
2019-04-21T01:39:41.375Z,4.90
2019-04-21T01:41:03.576Z,4.90
2019-04-21T01:41:52.557Z,4.90
2019-04-21T01:42:56.770Z,4.90
2019-04-21T01:44:01.122Z,4.90
2019-04-21T01:45:11.472Z,4.90
2019-04-21T01:46:14.163Z,4.90
2019-04-21T01:47:20.392Z,4.90
2019-04-21T01:48:33.300Z,4.90
2019-04-21T01:49:33.468Z,5.00
2019-04-21T01:50:46.833Z,5.00
2019-04-21T01:52:08.940Z,5.00
2019-04-21T01:53:11.125Z,5.00
2019-04-21T01:54:37.657Z,5.00
2019-04-21T01:56:00.581Z,5.00
2019-04-21T01:57:12.990Z,4.90
2019-04-21T01:58:19.770Z,4.90
2019-04-21T01:59:31.996Z,4.90
2019-04-21T02:00:45.571Z,4.90
2019-04-21T02:02:02.375Z,4.80
2019-04-21T02:03:09.899Z,4.90
2019-04-21T02:04:15.028Z,4.80
2019-04-21T02:05:28.390Z,4.80
2019-04-21T02:06:33.384Z,4.80
2019-04-21T02:07:40.569Z,4.80
2019-04-21T02:08:44.919Z,4.80
2019-04-21T02:09:51.298Z,4.90
2019-04-21T02:12:08.740Z,4.80
2019-04-21T02:13:11.838Z,4.70
2019-04-21T02:14:22.801Z,4.60
2019-04-21T02:15:29.920Z,4.50
2019-04-21T02:16:34.529Z,4.50
2019-04-21T02:17:45.309Z,4.40
2019-04-21T02:18:49.374Z,4.40
2019-04-21T02:19:56.431Z,4.30
2019-04-21T02:20:55.392Z,4.20
2019-04-21T02:22:11.410Z,4.10
2019-04-21T02:23:34.397Z,4.10
2019-04-21T02:24:40.037Z,4.10
2019-04-21T02:25:38.389Z,4.00
2019-04-21T02:26:44.007Z,4.00
2019-04-21T02:27:54.557Z,3.90
2019-04-21T02:29:01.974Z,3.90
2019-04-21T02:30:12.148Z,3.90
2019-04-21T02:31:41.850Z,3.80
2019-04-21T02:33:50.783Z,3.80
2019-04-21T02:35:03.167Z,3.80
2019-04-21T02:38:11.854Z,3.70
2019-04-21T02:39:31.747Z,3.70
2019-04-21T02:40:35.658Z,3.60
2019-04-21T02:41:35.529Z,3.70
2019-04-21T02:42:46.415Z,3.60
2019-04-21T02:43:50.176Z,3.60
2019-04-21T02:44:56.340Z,3.60
2019-04-21T02:46:54.372Z,3.50
2019-04-21T02:49:45.187Z,3.40
2019-04-21T02:50:33.485Z,3.40
2019-04-21T02:52:43.709Z,3.40
2019-04-21T02:54:11.966Z,3.40
2019-04-21T02:54:58.539Z,3.30
2019-04-21T02:56:11.104Z,3.30
2019-04-21T02:57:18.974Z,3.20
2019-04-21T02:58:34.381Z,3.20
2019-04-21T02:59:49.675Z,3.20
2019-04-21T03:01:31.151Z,3.20
2019-04-21T03:02:46.951Z,3.20
2019-04-21T03:03:52.517Z,3.20
2019-04-21T03:05:32.029Z,3.20
2019-04-21T03:06:54.216Z,3.20
2019-04-21T03:07:55.527Z,3.20
2019-04-21T03:09:01.215Z,3.20
2019-04-21T03:10:26.709Z,3.10
2019-04-21T03:11:12.283Z,3.20
2019-04-21T03:12:20.625Z,3.10
2019-04-21T03:15:54.783Z,3.10
2019-04-21T03:16:40.654Z,3.00
2019-04-21T03:18:06.610Z,3.00
2019-04-21T03:19:06.794Z,3.00
2019-04-21T03:20:16.994Z,3.00
2019-04-21T03:21:25.935Z,3.00
2019-04-21T03:22:26.475Z,3.00
2019-04-21T03:23:46.513Z,2.90
2019-04-21T03:25:52.052Z,2.90
2019-04-21T03:27:12.547Z,2.90
2019-04-21T03:28:11.683Z,2.90
2019-04-21T03:30:52.937Z,2.90
2019-04-21T03:31:49.459Z,3.00
2019-04-21T03:33:08.880Z,3.00
2019-04-21T03:34:21.416Z,3.00
2019-04-21T03:38:16.597Z,2.90
2019-04-21T03:39:18.447Z,2.90
2019-04-21T03:40:22.165Z,2.90
2019-04-21T03:41:40.309Z,2.80
2019-04-21T03:42:42.499Z,2.90
2019-04-21T03:45:58.296Z,2.80
2019-04-21T03:48:20.790Z,2.80
2019-04-21T03:49:32.499Z,2.70
2019-04-21T03:50:42.775Z,2.80
2019-04-21T03:51:42.196Z,2.70
2019-04-21T03:52:47.799Z,2.70
2019-04-21T03:53:46.227Z,2.80
2019-04-21T04:00:02.738Z,2.80
2019-04-21T04:02:36.600Z,3.00
2019-04-21T04:05:23.908Z,3.00
2019-04-21T04:06:27.993Z,3.10
2019-04-21T04:08:31.940Z,3.00
2019-04-21T04:10:11.796Z,3.10
2019-04-21T04:11:30.093Z,3.10
2019-04-21T04:14:46.178Z,3.20
2019-04-21T04:15:56.450Z,3.20
2019-04-21T04:17:06.067Z,3.20
2019-04-21T04:18:04.126Z,3.20
2019-04-21T04:19:34.609Z,3.20
2019-04-21T04:20:30.283Z,3.20
2019-04-21T04:21:47.663Z,3.30
2019-04-21T04:22:41.039Z,3.40
2019-04-21T04:25:00.990Z,3.40
2019-04-21T04:25:59.128Z,3.40
2019-04-21T04:27:07.956Z,3.40
2019-04-21T04:28:23.076Z,3.50
2019-04-21T04:29:20.389Z,3.50
2019-04-21T04:32:41.892Z,3.60
2019-04-21T04:36:30.339Z,3.70
2019-04-21T04:38:22.344Z,3.80
2019-04-21T04:41:06.107Z,3.90
2019-04-21T04:43:28.578Z,3.90
2019-04-21T04:45:38.469Z,4.00
2019-04-21T04:47:49.846Z,4.10
2019-04-21T04:49:06.137Z,4.10
2019-04-21T04:50:24.332Z,4.20
2019-04-21T04:51:17.004Z,4.20
2019-04-21T04:53:32.868Z,4.30
2019-04-21T04:54:49.271Z,4.30
2019-04-21T04:55:46.038Z,4.30
2019-04-21T04:56:56.335Z,4.40
2019-04-21T04:58:04.763Z,4.40
2019-04-21T04:59:23.257Z,4.50
2019-04-21T05:00:21.353Z,4.50
2019-04-21T05:06:42.138Z,4.80
2019-04-21T05:07:44.667Z,4.90
2019-04-21T05:09:54.064Z,5.20
2019-04-21T05:11:08.018Z,5.40
2019-04-21T05:12:05.958Z,5.40
2019-04-21T05:13:21.917Z,5.60
2019-04-21T05:15:42.486Z,5.80
2019-04-21T05:17:48.362Z,6.10
2019-04-21T05:21:16.091Z,6.50
2019-04-21T05:22:20.221Z,6.60
2019-04-21T05:23:15.717Z,6.70
2019-04-21T05:24:16.314Z,6.80
2019-04-21T05:25:19.561Z,6.90
2019-04-21T05:26:29.906Z,7.10
2019-04-21T05:27:38.634Z,7.20
2019-04-21T05:28:44.690Z,7.40
2019-04-21T05:30:09.986Z,7.50
2019-04-21T05:31:32.322Z,7.70
2019-04-21T05:32:58.284Z,7.90
2019-04-21T05:34:14.969Z,8.00
2019-04-21T05:35:18.595Z,8.20
2019-04-21T05:36:44.316Z,8.30
2019-04-21T05:38:03.115Z,8.40
2019-04-21T05:39:11.553Z,8.60
2019-04-21T05:40:22.190Z,8.80
2019-04-21T05:41:26.681Z,9.00
2019-04-21T05:42:40.014Z,9.10
2019-04-21T05:43:48.034Z,9.20
2019-04-21T05:45:05.463Z,9.40
2019-04-21T05:46:10.451Z,9.50
2019-04-21T05:47:20.352Z,9.50
2019-04-21T05:48:46.516Z,9.60
2019-04-21T05:49:55.497Z,9.80
2019-04-21T05:51:03.698Z,9.90
2019-04-21T05:52:08.138Z,9.90
2019-04-21T05:53:29.570Z,9.90
2019-04-21T05:54:52.933Z,10.00
2019-04-21T05:55:45.566Z,10.10
2019-04-21T05:56:52.270Z,10.10
2019-04-21T05:57:57.312Z,10.20
2019-04-21T05:59:03.410Z,10.40
2019-04-21T06:00:10.125Z,10.40
2019-04-21T06:01:23.747Z,10.50
2019-04-21T06:03:40.605Z,10.60
2019-04-21T06:05:02.042Z,10.70
2019-04-21T06:06:00.361Z,10.80
2019-04-21T06:06:56.818Z,10.80
2019-04-21T06:08:10.373Z,10.80
2019-04-21T06:09:08.347Z,10.90
2019-04-21T06:10:22.217Z,11.00
2019-04-21T06:11:28.877Z,11.00
2019-04-21T06:12:36.098Z,11.00
2019-04-21T06:14:48.455Z,11.10
2019-04-21T06:15:56.961Z,11.20
2019-04-21T06:17:03.305Z,11.20
2019-04-21T06:18:11.711Z,11.30
2019-04-21T06:19:23.648Z,11.30
2019-04-21T06:20:32.177Z,11.30
2019-04-21T06:21:35.441Z,11.40
2019-04-21T06:22:39.672Z,11.40
2019-04-21T06:23:45.593Z,11.50
2019-04-21T06:25:23.385Z,11.60
2019-04-21T06:27:21.033Z,11.70
2019-04-21T06:28:20.296Z,11.70
2019-04-21T06:29:23.723Z,11.80
2019-04-21T06:30:33.188Z,11.90
2019-04-21T06:32:02.306Z,11.90
2019-04-21T06:33:50.718Z,12.00
2019-04-21T06:39:05.127Z,12.20
2019-04-21T06:40:16.879Z,12.20
2019-04-21T06:41:21.370Z,12.30
2019-04-21T06:42:22.307Z,12.30
2019-04-21T06:43:33.205Z,12.30
2019-04-21T06:44:33.537Z,12.40
2019-04-21T06:45:39.998Z,12.40
2019-04-21T06:46:44.609Z,12.40
2019-04-21T06:47:57.547Z,12.50
2019-04-21T06:48:59.560Z,12.50
2019-04-21T06:50:07.564Z,12.60
2019-04-21T06:51:20.495Z,12.60
2019-04-21T06:52:41.945Z,12.60
2019-04-21T06:53:29.241Z,12.60
2019-04-21T06:54:33.893Z,12.70
2019-04-21T06:55:41.913Z,12.70
2019-04-21T06:56:47.928Z,12.80
2019-04-21T06:57:53.206Z,12.90
2019-04-21T06:58:58.008Z,12.90
2019-04-21T06:59:59.863Z,12.90
2019-04-21T07:01:15.580Z,13.00
2019-04-21T07:02:33.343Z,13.00
2019-04-21T07:03:29.438Z,13.00
2019-04-21T07:04:36.730Z,13.10
2019-04-21T07:05:42.719Z,13.10
2019-04-21T07:06:52.101Z,13.20
2019-04-21T07:08:11.277Z,13.30
2019-04-21T07:09:10.106Z,13.30
2019-04-21T07:10:22.023Z,13.40
2019-04-21T07:11:14.031Z,13.50
2019-04-21T07:12:15.607Z,13.50
2019-04-21T07:13:23.662Z,13.60
2019-04-21T07:15:43.524Z,13.70
2019-04-21T07:16:51.022Z,13.70
2019-04-21T07:17:53.100Z,13.80
2019-04-21T07:19:05.660Z,13.80
2019-04-21T07:20:10.089Z,13.90
2019-04-21T07:21:08.175Z,13.90
2019-04-21T07:22:17.669Z,13.90
2019-04-21T07:23:26.032Z,14.00
2019-04-21T07:24:31.970Z,14.00
2019-04-21T07:25:40.924Z,14.00
2019-04-21T07:26:45.883Z,14.00
2019-04-21T07:27:56.678Z,14.00
2019-04-21T07:29:02.951Z,13.90
2019-04-21T07:30:04.372Z,13.90
2019-04-21T07:31:11.184Z,14.00
2019-04-21T07:32:14.059Z,14.00
2019-04-21T07:33:41.970Z,14.00
2019-04-21T07:34:33.283Z,14.00
2019-04-21T07:35:51.776Z,14.00
2019-04-21T07:36:50.861Z,14.10
2019-04-21T07:37:49.093Z,14.00
2019-04-21T07:38:58.950Z,14.10
2019-04-21T07:40:01.875Z,13.90
2019-04-21T07:41:06.240Z,13.80
2019-04-21T07:42:09.503Z,13.90
2019-04-21T07:43:16.612Z,13.90
2019-04-21T07:44:17.078Z,14.00
2019-04-21T07:45:27.783Z,14.10
2019-04-21T07:46:31.424Z,14.20
2019-04-21T07:47:53.088Z,14.30
2019-04-21T07:48:58.743Z,14.40
2019-04-21T07:50:08.687Z,14.50
2019-04-21T07:51:45.624Z,14.60
2019-04-21T07:53:01.139Z,14.70
2019-04-21T07:54:26.968Z,14.70
2019-04-21T07:55:20.002Z,14.80
2019-04-21T07:56:05.570Z,14.90
2019-04-21T07:57:16.939Z,14.90
2019-04-21T07:58:31.831Z,14.90
2019-04-21T07:59:52.371Z,14.90
2019-04-21T08:00:51.136Z,14.80
2019-04-21T08:01:53.237Z,14.80
2019-04-21T08:02:54.478Z,14.80
2019-04-21T08:04:03.402Z,14.90
2019-04-21T08:05:13.046Z,14.90
2019-04-21T08:06:25.331Z,15.00
2019-04-21T08:07:24.490Z,15.20
2019-04-21T08:08:29.658Z,15.20
2019-04-21T08:09:37.175Z,15.30
2019-04-21T08:10:39.230Z,15.40
2019-04-21T08:11:44.211Z,15.40
2019-04-21T08:12:54.429Z,15.40
2019-04-21T08:14:01.081Z,15.50
2019-04-21T08:15:16.933Z,15.60
2019-04-21T08:16:18.096Z,15.60
2019-04-21T08:17:24.516Z,15.60
2019-04-21T08:18:33.682Z,15.60
2019-04-21T08:19:35.228Z,15.60
2019-04-21T08:20:46.281Z,15.70
2019-04-21T08:22:59.297Z,15.80
2019-04-21T08:23:59.913Z,15.90
2019-04-21T08:25:08.762Z,16.00
2019-04-21T08:26:15.648Z,16.00
2019-04-21T08:27:27.799Z,16.00
2019-04-21T08:28:36.835Z,16.00
2019-04-21T08:29:40.396Z,16.00
2019-04-21T08:30:43.194Z,16.00
2019-04-21T08:31:57.243Z,16.10
2019-04-21T08:33:00.502Z,16.00
2019-04-21T08:34:09.890Z,16.00
2019-04-21T08:35:48.687Z,16.10
2019-04-21T08:36:25.042Z,16.20
2019-04-21T08:37:18.525Z,16.20
2019-04-21T08:38:30.213Z,16.20
2019-04-21T08:39:42.065Z,16.20
2019-04-21T08:41:49.636Z,16.20
2019-04-21T08:42:55.067Z,16.20
2019-04-21T08:43:56.130Z,16.20
2019-04-21T08:45:10.765Z,16.30
2019-04-21T08:46:22.709Z,16.40
2019-04-21T08:47:30.073Z,16.40
2019-04-21T08:48:29.025Z,16.40
2019-04-21T08:49:36.363Z,16.40
2019-04-21T08:50:44.555Z,16.50
2019-04-21T08:51:54.904Z,16.60
2019-04-21T08:52:56.453Z,16.60
2019-04-21T08:54:13.415Z,16.60
2019-04-21T08:55:20.049Z,16.60
2019-04-21T08:57:06.065Z,16.70
2019-04-21T08:58:29.181Z,16.70
2019-04-21T08:59:55.192Z,16.70
2019-04-21T09:01:33.368Z,16.70
2019-04-21T09:02:47.530Z,16.70
2019-04-21T09:04:01.211Z,16.80
2019-04-21T09:05:04.683Z,16.90
2019-04-21T09:06:14.484Z,16.90
2019-04-21T09:07:29.154Z,17.10
2019-04-21T09:08:27.671Z,17.00
2019-04-21T09:09:39.630Z,17.00
2019-04-21T09:10:39.587Z,17.10
2019-04-21T09:11:47.536Z,17.00
2019-04-21T09:12:52.059Z,16.80
2019-04-21T09:14:01.027Z,16.70
2019-04-21T09:15:01.228Z,16.80
2019-04-21T09:16:11.137Z,16.80
2019-04-21T09:17:15.329Z,16.80
2019-04-21T09:18:18.582Z,16.80
2019-04-21T09:19:48.374Z,16.70
2019-04-21T09:21:50.502Z,16.80
2019-04-21T09:22:54.296Z,16.90
2019-04-21T09:23:56.048Z,16.90
2019-04-21T09:25:01.556Z,16.90
2019-04-21T09:26:14.101Z,17.00
2019-04-21T09:27:14.223Z,17.10
2019-04-21T09:28:19.860Z,17.10
2019-04-21T09:29:21.858Z,17.20
2019-04-21T09:30:19.816Z,16.90
2019-04-21T09:31:31.994Z,16.90
2019-04-21T09:32:34.489Z,16.90
2019-04-21T09:33:45.403Z,16.80
2019-04-21T09:34:47.097Z,16.80
2019-04-21T09:35:58.789Z,16.90
2019-04-21T09:37:12.422Z,17.00
2019-04-21T09:38:17.838Z,16.90
2019-04-21T09:39:18.273Z,16.90
2019-04-21T09:40:27.372Z,17.00
2019-04-21T09:41:28.352Z,17.10
2019-04-21T09:42:41.533Z,17.20
2019-04-21T09:43:46.218Z,17.30
2019-04-21T09:44:48.374Z,17.30
2019-04-21T09:45:54.136Z,17.30
2019-04-21T09:47:01.967Z,17.40
2019-04-21T09:48:11.777Z,17.50
2019-04-21T09:49:16.484Z,17.50
2019-04-21T09:50:19.846Z,17.70
2019-04-21T09:51:25.862Z,17.80
2019-04-21T09:52:39.729Z,17.90
2019-04-21T09:53:41.350Z,18.00
2019-04-21T09:54:53.062Z,18.10
2019-04-21T09:55:56.722Z,18.20
2019-04-21T09:57:03.278Z,18.10
2019-04-21T09:58:15.191Z,18.10
2019-04-21T09:59:18.738Z,18.20
2019-04-21T10:00:22.458Z,18.40
2019-04-21T10:01:30.916Z,18.40
2019-04-21T10:02:39.939Z,18.30
2019-04-21T10:03:46.155Z,18.30
2019-04-21T10:04:46.088Z,18.50
2019-04-21T10:05:52.045Z,18.30
2019-04-21T10:06:56.928Z,18.20
2019-04-21T10:08:01.856Z,18.30
2019-04-21T10:09:11.565Z,18.50
2019-04-21T10:10:17.136Z,18.20
2019-04-21T10:11:22.610Z,18.30
2019-04-21T10:12:28.721Z,18.50
2019-04-21T10:13:33.973Z,18.50
2019-04-21T10:14:39.014Z,18.70
2019-04-21T10:15:46.282Z,18.80
2019-04-21T10:17:00.318Z,18.90
2019-04-21T10:18:13.089Z,18.80
2019-04-21T10:19:17.951Z,18.70
2019-04-21T10:20:24.393Z,18.60
2019-04-21T10:21:29.513Z,18.70
2019-04-21T10:22:35.101Z,18.70
2019-04-21T10:23:41.572Z,18.80
2019-04-21T10:24:46.809Z,18.80
2019-04-21T10:25:52.546Z,18.80
2019-04-21T10:26:57.468Z,18.80
2019-04-21T10:28:03.283Z,18.80
2019-04-21T10:29:16.329Z,18.50
2019-04-21T10:30:16.229Z,18.70
2019-04-21T10:31:22.681Z,18.90
2019-04-21T10:32:28.213Z,18.90
2019-04-21T10:33:34.500Z,19.00
2019-04-21T10:34:39.498Z,19.20
2019-04-21T10:35:44.329Z,19.20
2019-04-21T10:36:49.387Z,19.40
2019-04-21T10:38:08.011Z,19.50
2019-04-21T10:39:02.230Z,19.80
2019-04-21T10:40:08.015Z,19.80
2019-04-21T10:41:13.004Z,19.80
2019-04-21T10:42:17.881Z,19.70
2019-04-21T10:43:24.348Z,19.60
2019-04-21T10:44:29.498Z,19.70
2019-04-21T10:45:34.903Z,19.90
2019-04-21T10:46:40.608Z,20.10
2019-04-21T10:47:47.086Z,20.20
2019-04-21T10:48:54.930Z,20.30
2019-04-21T10:50:00.489Z,20.30
2019-04-21T10:51:05.480Z,20.40
2019-04-21T10:52:17.338Z,20.40
2019-04-21T10:53:25.244Z,19.90
2019-04-21T10:54:49.133Z,20.20
2019-04-21T10:55:54.387Z,20.40
2019-04-21T10:56:45.574Z,20.20
2019-04-21T10:58:08.704Z,20.40
2019-04-21T10:59:14.344Z,20.80
2019-04-21T11:00:21.735Z,21.10
2019-04-21T11:01:31.495Z,20.90
2019-04-21T11:02:46.480Z,20.80
2019-04-21T11:03:55.911Z,21.10
2019-04-21T11:05:00.805Z,20.70
2019-04-21T11:06:06.584Z,20.90
2019-04-21T11:07:59.379Z,21.20
2019-04-21T11:08:55.379Z,21.00
2019-04-21T11:09:58.547Z,21.00
2019-04-21T11:11:03.830Z,21.20
2019-04-21T11:12:10.152Z,21.40
2019-04-21T11:13:15.100Z,21.40
2019-04-21T11:14:21.021Z,21.50
2019-04-21T11:15:27.425Z,21.70
2019-04-21T11:16:33.205Z,22.00
2019-04-21T11:17:40.622Z,22.40
2019-04-21T11:18:44.565Z,22.10
2019-04-21T11:19:50.610Z,22.30
2019-04-21T11:20:55.669Z,22.20
2019-04-21T11:22:01.056Z,22.40
2019-04-21T11:23:06.061Z,22.60
2019-04-21T11:24:12.130Z,22.70
2019-04-21T11:25:17.842Z,22.80
2019-04-21T11:26:24.165Z,22.60
2019-04-21T11:27:29.325Z,22.70
2019-04-21T11:28:34.661Z,23.00
2019-04-21T11:29:39.662Z,23.40
2019-04-21T11:30:44.590Z,23.50
2019-04-21T11:31:49.615Z,23.30
2019-04-21T11:32:55.262Z,23.50
2019-04-21T11:34:00.917Z,23.80
2019-04-21T11:35:07.346Z,23.40
2019-04-21T11:36:13.384Z,23.60
2019-04-21T11:37:20.082Z,23.60
2019-04-21T11:38:58.123Z,23.90
2019-04-21T11:39:59.370Z,23.50
2019-04-21T11:40:58.106Z,23.30
2019-04-21T11:42:08.349Z,23.20
2019-04-21T11:43:13.737Z,22.90
2019-04-21T11:44:21.525Z,23.00
2019-04-21T11:45:34.522Z,22.90
2019-04-21T11:46:40.368Z,23.20
2019-04-21T11:48:03.962Z,23.40
2019-04-21T11:49:10.423Z,23.20
2019-04-21T11:50:15.419Z,23.10
2019-04-21T11:51:20.668Z,22.70
2019-04-21T11:52:26.850Z,22.30
2019-04-21T11:53:32.857Z,22.50
2019-04-21T11:54:38.052Z,22.80
2019-04-21T11:55:46.689Z,23.10
2019-04-21T11:56:50.649Z,23.10
2019-04-21T11:57:56.524Z,23.00
2019-04-21T11:59:01.969Z,23.30
2019-04-21T12:00:07.578Z,23.40
2019-04-21T12:01:13.895Z,23.40
2019-04-21T12:02:19.422Z,23.30
2019-04-21T12:03:24.716Z,23.20
2019-04-21T12:04:29.919Z,23.20
2019-04-21T12:05:35.226Z,22.80
2019-04-21T12:06:44.480Z,23.00
2019-04-21T12:07:47.259Z,23.00
2019-04-21T12:08:54.942Z,23.10
2019-04-21T12:09:59.676Z,23.40
2019-04-21T12:11:05.325Z,23.60
2019-04-21T12:12:11.513Z,23.60
2019-04-21T12:13:16.757Z,23.80
2019-04-21T12:14:23.816Z,23.70
2019-04-21T12:15:29.198Z,22.90
2019-04-21T12:16:35.088Z,22.70
2019-04-21T12:17:41.699Z,22.70
2019-04-21T12:18:47.212Z,22.60
2019-04-21T12:19:52.699Z,22.70
2019-04-21T12:20:57.999Z,22.10
2019-04-21T12:22:10.984Z,22.00
2019-04-21T12:23:09.672Z,21.90
2019-04-21T12:24:15.257Z,22.20
2019-04-21T12:25:21.029Z,22.30
2019-04-21T12:26:26.445Z,22.20
2019-04-21T12:27:32.003Z,22.30
2019-04-21T12:28:37.620Z,22.60
2019-04-21T12:29:43.949Z,23.00
2019-04-21T12:30:53.645Z,23.20
2019-04-21T12:32:36.327Z,22.50
2019-04-21T12:34:09.915Z,22.30
2019-04-21T12:35:15.809Z,22.50
2019-04-21T12:36:21.980Z,22.50
2019-04-21T12:37:28.838Z,22.90
2019-04-21T12:38:42.682Z,23.10
2019-04-21T12:39:41.250Z,23.10
2019-04-21T12:40:46.579Z,23.00
2019-04-21T12:41:51.664Z,23.20
2019-04-21T12:42:56.846Z,23.20
2019-04-21T12:44:02.527Z,23.10
2019-04-21T12:45:09.740Z,22.90
2019-04-21T12:46:15.940Z,22.80
2019-04-21T12:47:21.731Z,22.00
2019-04-21T12:48:28.167Z,21.90
2019-04-21T12:49:33.869Z,22.00
2019-04-21T12:50:39.589Z,22.10
2019-04-21T12:51:46.128Z,22.20
2019-04-21T12:52:51.632Z,22.40
2019-04-21T12:53:57.438Z,22.20
2019-04-21T12:55:03.728Z,22.20
2019-04-21T12:56:09.773Z,22.30
2019-04-21T12:57:14.770Z,22.50
2019-04-21T12:58:21.361Z,22.40
2019-04-21T12:59:29.217Z,22.20
2019-04-21T13:00:33.565Z,21.60
2019-04-21T13:01:39.012Z,21.40
2019-04-21T13:02:45.496Z,21.10
2019-04-21T13:03:52.031Z,21.50
2019-04-21T13:04:57.791Z,22.00
2019-04-21T13:06:03.519Z,22.30
2019-04-21T13:07:09.838Z,22.70
2019-04-21T13:08:15.459Z,22.80
2019-04-21T13:09:22.130Z,22.90
2019-04-21T13:10:28.440Z,22.90
2019-04-21T13:11:34.973Z,23.00
2019-04-21T13:12:41.657Z,23.50
2019-04-21T13:13:48.093Z,23.80
2019-04-21T13:14:55.662Z,24.30
2019-04-21T13:16:01.324Z,25.00
2019-04-21T13:17:07.638Z,25.30
2019-04-21T13:18:14.234Z,25.30
2019-04-21T13:19:20.973Z,25.20
2019-04-21T13:20:27.483Z,26.20
2019-04-21T13:21:33.862Z,26.30
2019-04-21T13:22:39.787Z,26.50
2019-04-21T13:23:45.172Z,27.00
2019-04-21T13:24:51.637Z,27.10
2019-04-21T13:25:56.889Z,26.00
2019-04-21T13:27:03.625Z,26.30
2019-04-21T13:28:10.347Z,26.30
2019-04-21T13:29:16.521Z,26.20
2019-04-21T13:30:22.371Z,25.50
2019-04-21T13:31:27.519Z,25.40
2019-04-21T13:32:33.199Z,25.70
2019-04-21T13:33:38.260Z,25.40
2019-04-21T13:34:44.245Z,25.40
2019-04-21T13:35:50.795Z,25.80
2019-04-21T13:36:57.358Z,26.00
2019-04-21T13:38:02.956Z,26.00
2019-04-21T13:41:12.223Z,25.60
2019-04-21T13:42:10.993Z,26.80
2019-04-21T13:43:10.148Z,27.80
2019-04-21T13:44:16.353Z,28.70
2019-04-21T13:45:23.841Z,29.00
2019-04-21T13:46:28.957Z,28.60
2019-04-21T13:47:34.657Z,28.50
2019-04-21T13:48:40.333Z,28.70
2019-04-21T13:49:45.502Z,29.00
2019-04-21T13:50:51.223Z,29.40
2019-04-21T13:51:56.293Z,30.00
2019-04-21T13:53:02.721Z,30.90
2019-04-21T13:54:09.531Z,31.10
2019-04-21T13:55:15.833Z,31.00
2019-04-21T13:56:22.581Z,31.10
2019-04-21T13:57:28.476Z,31.40
2019-04-21T13:58:34.582Z,32.10
2019-04-21T13:59:40.363Z,31.70
2019-04-21T14:00:45.743Z,31.20
2019-04-21T14:01:51.992Z,30.70
2019-04-21T14:02:58.645Z,30.30
2019-04-21T14:04:05.183Z,30.00
2019-04-21T14:05:13.456Z,30.20
2019-04-21T14:06:18.343Z,29.20
2019-04-21T14:07:23.990Z,28.60
2019-04-21T14:08:29.405Z,28.10
2019-04-21T14:09:43.750Z,28.20
2019-04-21T14:10:41.751Z,28.90
2019-04-21T14:11:47.434Z,28.30
2019-04-21T14:12:54.116Z,27.90
2019-04-21T14:14:00.512Z,27.80
2019-04-21T14:15:06.320Z,26.60
2019-04-21T14:16:11.830Z,26.50
2019-04-21T14:17:17.458Z,25.70
2019-04-21T14:18:22.713Z,25.30
2019-04-21T14:19:27.931Z,25.30
2019-04-21T14:20:33.339Z,25.80
2019-04-21T14:21:39.193Z,25.50
2019-04-21T14:22:44.327Z,26.20
2019-04-21T14:23:52.237Z,25.40
2019-04-21T14:24:56.279Z,25.30
2019-04-21T14:26:03.890Z,25.00
2019-04-21T14:27:10.092Z,24.80
2019-04-21T14:28:15.656Z,24.10
2019-04-21T14:29:21.754Z,24.00
2019-04-21T14:30:28.403Z,24.00
2019-04-21T14:31:34.677Z,24.10
2019-04-21T14:32:40.200Z,23.80
2019-04-21T14:33:45.915Z,24.50
2019-04-21T14:34:53.863Z,24.00
2019-04-21T14:35:58.886Z,24.30
2019-04-21T14:37:04.525Z,24.60
2019-04-21T14:38:10.768Z,25.20
2019-04-21T14:39:16.661Z,26.20
2019-04-21T14:40:25.810Z,26.50
2019-04-21T14:41:30.528Z,26.50
2019-04-21T14:42:36.054Z,26.60
2019-04-21T14:43:41.772Z,26.60
2019-04-21T14:44:47.254Z,25.90
2019-04-21T14:46:11.158Z,25.70
2019-04-21T14:47:25.122Z,25.10
2019-04-21T14:48:48.759Z,25.00
2019-04-21T14:50:22.370Z,24.70
2019-04-21T14:51:50.240Z,24.10
2019-04-21T14:53:11.834Z,23.40
2019-04-21T14:54:38.932Z,22.20
2019-04-21T14:55:46.544Z,22.10
2019-04-21T14:56:51.612Z,22.10
2019-04-21T14:57:57.107Z,21.90
2019-04-21T14:59:04.117Z,21.90
2019-04-21T15:00:13.257Z,22.10
2019-04-21T15:01:19.763Z,22.00
2019-04-21T15:02:25.561Z,22.00
2019-04-21T15:03:31.947Z,21.90
2019-04-21T15:04:37.676Z,22.10
2019-04-21T15:05:42.989Z,22.20
2019-04-21T15:06:48.011Z,22.20
2019-04-21T15:07:53.206Z,22.20
2019-04-21T15:08:58.155Z,21.90
2019-04-21T15:10:11.572Z,21.80
2019-04-21T15:11:10.090Z,22.00
2019-04-21T15:12:16.197Z,22.70
2019-04-21T15:13:21.819Z,23.50
2019-04-21T15:14:27.090Z,23.30
2019-04-21T15:15:32.419Z,22.60
2019-04-21T15:16:38.674Z,22.50
2019-04-21T15:17:44.187Z,22.30
2019-04-21T15:18:50.487Z,22.70
2019-04-21T15:19:59.681Z,23.00
2019-04-21T15:21:03.646Z,22.80
2019-04-21T15:22:10.118Z,23.00
2019-04-21T15:23:15.269Z,22.80
2019-04-21T15:24:20.489Z,22.30
2019-04-21T15:25:26.059Z,22.30
2019-04-21T15:26:32.386Z,23.00
2019-04-21T15:27:37.407Z,23.70
2019-04-21T15:28:42.560Z,23.30
2019-04-21T15:29:48.518Z,22.90
2019-04-21T15:30:54.427Z,22.60
2019-04-21T15:32:00.750Z,22.60
2019-04-21T15:33:06.461Z,22.30
2019-04-21T15:34:13.012Z,22.10
2019-04-21T15:35:19.546Z,22.60
2019-04-21T15:36:25.039Z,22.80
2019-04-21T15:37:31.569Z,22.60
2019-04-21T15:38:38.036Z,22.70
2019-04-21T15:39:44.690Z,23.30
2019-04-21T15:40:55.479Z,23.70
2019-04-21T15:41:58.686Z,23.50
2019-04-21T15:43:04.384Z,23.10
2019-04-21T15:44:09.921Z,22.80
2019-04-21T15:45:16.645Z,22.80
2019-04-21T15:46:22.612Z,22.90
2019-04-21T15:47:28.262Z,22.70
2019-04-21T15:48:34.842Z,22.90
2019-04-21T15:50:02.920Z,22.30
2019-04-21T15:51:05.598Z,22.40
2019-04-21T15:52:09.787Z,22.10